Welcome to Northern Hawkes Bay. New Zealand.
PWS Header
      nz Flag



Hit Counter


W3C Valid W3C Valid logo


    Wairoa

Select any of the Stations below to visit their websites.










Historic Data from Weather Underground
Select the location of interest below. Wairoa is the default. Please have patience, this Data is slow to load in.
Northern Hawkes Bay Historical Data
Daily Summary for March 14, 2017 Units:  Metric    English   Both
« Previous Day
Next Day »
Daily Weekly Monthly Yearly Custom
  High: Low: Average:
Temperature: 20.1 °C 13.7 °C 15.9 °C
Dew Point: 15.4 °C 10.3 °C 13.3 °C
Humidity: 99% 69% 85%
Wind Speed: 28.0km/h 0.0km/h 9.9km/h
Wind Gust: 43.9km/h - -
Wind- - WSW
Pressure: 1020.9 hPa 1013.8 hPa -
Precipitation: 3.8 mm    
Historical Graphs
 
 
Tabular Data for March 14, 2017
Time Temperature Dew Point Pressure Wind Wind Speed Wind Gust Humidity Rainfall Rate (Hourly) solar
00:03 15.5 °C 15.3 °C 1014.4 hPa Calm     99% 0.0 mm 0 W/m2
00:08 15.4 °C 15.3 °C 1014.1 hPa Calm     99% 0.0 mm 0 W/m2
00:13 15.3 °C 15.2 °C 1014.4 hPa Calm     99% 0.0 mm 0 W/m2
00:18 15.2 °C 15.1 °C 1014.4 hPa Calm     99% 0.0 mm 0 W/m2
00:23 15.2 °C 15.1 °C 1014.1 hPa Calm     99% 0.0 mm 0 W/m2
00:28 15.1 °C 14.9 °C 1014.1 hPa Calm     99% 0.0 mm 0 W/m2
00:33 15.1 °C 14.9 °C 1014.1 hPa Calm     99% 0.0 mm 0 W/m2
00:38 15.1 °C 14.9 °C 1014.1 hPa Calm     99% 0.0 mm 0 W/m2
00:43 15.0 °C 14.8 °C 1014.1 hPa Calm     99% 0.0 mm 0 W/m2
00:48 15.0 °C 14.8 °C 1014.1 hPa Calm     99% 0.0 mm 0 W/m2
00:53 14.9 °C 14.8 °C 1014.1 hPa Calm     99% 0.0 mm 0 W/m2
00:58 14.8 °C 14.7 °C 1014.1 hPa Calm     99% 0.0 mm 0 W/m2
01:03 14.7 °C 14.6 °C 1014.1 hPa Calm     99% 0.0 mm 0 W/m2
01:08 14.7 °C 14.6 °C 1014.1 hPa Calm     99% 0.0 mm 0 W/m2
01:13 14.7 °C 14.6 °C 1014.4 hPa Calm     99% 0.0 mm 0 W/m2
01:18 14.6 °C 14.4 °C 1014.1 hPa Calm     99% 0.0 mm 0 W/m2
01:23 14.6 °C 14.4 °C 1014.1 hPa Calm     99% 0.0 mm 0 W/m2
01:28 14.6 °C 14.4 °C 1014.1 hPa Calm     99% 0.0 mm 0 W/m2
01:33 14.6 °C 14.4 °C 1014.1 hPa Calm     99% 0.0 mm 0 W/m2
01:38 14.6 °C 14.4 °C 1014.1 hPa Calm     99% 0.0 mm 0 W/m2
01:43 14.7 °C 14.6 °C 1014.1 hPa Calm     99% 0.0 mm 0 W/m2
01:48 14.6 °C 14.4 °C 1014.1 hPa Calm     99% 0.0 mm 0 W/m2
01:53 14.6 °C 14.4 °C 1014.1 hPa Calm     99% 0.0 mm 0 W/m2
01:58 14.6 °C 14.4 °C 1014.1 hPa Calm     99% 0.0 mm 0 W/m2
02:03 14.6 °C 14.4 °C 1014.1 hPa Calm     99% 0.0 mm 0 W/m2
02:08 14.6 °C 14.4 °C 1014.1 hPa Calm     99% 0.0 mm 0 W/m2
02:13 14.8 °C 14.7 °C 1014.1 hPa SW 6.1 km/h 12.2 km/h 99% 0.0 mm 0 W/m2
02:18 15.1 °C 14.9 °C 1014.4 hPa Calm   13.4 km/h 99% 0.0 mm 0 W/m2
02:23 15.2 °C 15.1 °C 1014.1 hPa Calm   13.4 km/h 99% 0.0 mm 0 W/m2
02:28 15.3 °C 15.2 °C 1014.1 hPa Calm     99% 0.0 mm 0 W/m2
02:33 15.3 °C 15.2 °C 1014.1 hPa Calm     99% 0.0 mm 0 W/m2
02:38 15.4 °C 15.3 °C 1014.1 hPa Calm     99% 0.0 mm 0 W/m2
02:43 15.4 °C 15.3 °C 1014.1 hPa Calm     99% 0.0 mm 0 W/m2
02:48 15.4 °C 15.1 °C 1014.1 hPa Calm     98% 0.0 mm 0 W/m2
02:53 15.5 °C 15.2 °C 1014.1 hPa Calm     98% 0.0 mm 0 W/m2
02:58 15.4 °C 15.1 °C 1014.1 hPa Calm     98% 0.0 mm 0 W/m2
03:03 15.4 °C 15.1 °C 1014.1 hPa Calm     98% 0.0 mm 0 W/m2
03:08 15.4 °C 15.1 °C 1014.1 hPa Calm     98% 0.0 mm 0 W/m2
03:13 15.4 °C 15.1 °C 1014.1 hPa Calm     98% 0.0 mm 0 W/m2
03:18 15.4 °C 15.1 °C 1014.1 hPa Calm     98% 0.0 mm 0 W/m2
03:23 15.4 °C 15.1 °C 1014.1 hPa Calm     98% 0.0 mm 0 W/m2
03:28 15.4 °C 15.1 °C 1014.1 hPa Calm     98% 0.0 mm 0 W/m2
03:33 15.3 °C 15.0 °C 1013.8 hPa Calm     98% 0.0 mm 0 W/m2
03:38 15.3 °C 14.8 °C 1014.1 hPa Calm     97% 0.0 mm 0 W/m2
03:43 15.3 °C 14.8 °C 1014.1 hPa Calm     97% 0.0 mm 0 W/m2
03:48 15.3 °C 14.8 °C 1014.1 hPa Calm     97% 0.0 mm 0 W/m2
03:53 15.3 °C 14.8 °C 1014.1 hPa Calm     97% 0.0 mm 0 W/m2
03:58 15.3 °C 14.8 °C 1013.8 hPa Calm     97% 0.0 mm 0 W/m2
04:03 15.3 °C 14.8 °C 1013.8 hPa Calm     97% 0.0 mm 0 W/m2
04:08 15.2 °C 14.6 °C 1013.8 hPa Calm     96% 0.0 mm 0 W/m2
04:13 15.2 °C 14.6 °C 1014.1 hPa Calm     96% 0.0 mm 0 W/m2
04:18 15.2 °C 14.6 °C 1014.1 hPa Calm     96% 0.0 mm 0 W/m2
04:23 15.2 °C 14.6 °C 1014.1 hPa Calm     96% 0.3 mm 0 W/m2
04:28 15.0 °C 14.4 °C 1013.8 hPa Calm     96% 0.5 mm 0 W/m2
04:33 14.8 °C 14.2 °C 1014.1 hPa NW 2.6 km/h 6.1 km/h 96% 0.5 mm 0 W/m2
04:38 14.6 °C 14.0 °C 1013.8 hPa NNW 5.0 km/h 8.7 km/h 96% 0.5 mm 0 W/m2
04:43 14.6 °C 14.0 °C 1013.8 hPa NNW 5.0 km/h 8.7 km/h 96% 0.5 mm 0 W/m2
04:48 14.6 °C 14.0 °C 1013.8 hPa NNW 5.0 km/h 8.7 km/h 96% 0.5 mm 0 W/m2
04:53 14.6 °C 14.1 °C 1013.8 hPa NNW 2.6 km/h 8.7 km/h 97% 0.5 mm 0 W/m2
04:58 14.6 °C 14.1 °C 1013.8 hPa Calm   6.1 km/h 97% 0.5 mm 0 W/m2
05:03 14.6 °C 14.1 °C 1013.8 hPa Calm   3.5 km/h 97% 0.5 mm 0 W/m2
05:08 14.6 °C 14.1 °C 1013.8 hPa Calm     97% 0.5 mm 0 W/m2
05:13 14.7 °C 14.2 °C 1013.8 hPa Calm   1.1 km/h 97% 0.5 mm 0 W/m2
05:18 14.7 °C 14.2 °C 1013.8 hPa Calm   1.1 km/h 97% 0.5 mm 0 W/m2
05:23 14.8 °C 14.3 °C 1013.8 hPa Calm     97% 0.3 mm 0 W/m2
05:40 14.7 °C 14.2 °C 1013.8 hPa Calm   6.1 km/h 97% 0.0 mm 0 W/m2
05:45 14.7 °C 14.2 °C 1013.8 hPa Calm   6.1 km/h 97% 0.0 mm 0 W/m2
05:50 14.7 °C 14.2 °C 1014.1 hPa North 1.1 km/h 6.1 km/h 97% 0.0 mm 0 W/m2
05:55 14.7 °C 14.2 °C 1013.8 hPa NNW 1.1 km/h 6.1 km/h 97% 0.0 mm 0 W/m2
06:00 14.7 °C 14.2 °C 1013.8 hPa NNW 2.6 km/h 6.1 km/h 97% 0.0 mm 0 W/m2
06:05 14.6 °C 14.1 °C 1013.8 hPa NNW 1.1 km/h 6.1 km/h 97% 0.0 mm 0 W/m2
06:10 14.6 °C 14.1 °C 1013.8 hPa NNW 3.5 km/h 7.2 km/h 97% 0.0 mm 0 W/m2
06:15 14.6 °C 14.1 °C 1013.8 hPa NW 3.5 km/h 7.2 km/h 97% 0.0 mm 0 W/m2
06:20 14.4 °C 14.1 °C 1013.8 hPa NW 3.5 km/h 7.2 km/h 98% 0.0 mm 0 W/m2
06:25 14.4 °C 14.1 °C 1013.8 hPa NW 1.1 km/h 6.1 km/h 98% 0.0 mm 0 W/m2
06:30 14.4 °C 13.9 °C 1013.8 hPa NNW 5.0 km/h 7.2 km/h 97% 0.0 mm 0 W/m2
06:35 14.4 °C 13.9 °C 1013.8 hPa NNW 5.0 km/h 8.7 km/h 97% 0.0 mm 0 W/m2
06:40 14.4 °C 13.9 °C 1013.8 hPa NNW 1.1 km/h 8.7 km/h 97% 0.0 mm 0 W/m2
06:45 14.4 °C 13.9 °C 1013.8 hPa NNW 1.1 km/h 7.2 km/h 97% 0.0 mm 0 W/m2
06:51 14.4 °C 13.8 °C 1014.1 hPa NNW 5.0 km/h 7.2 km/h 96% 0.0 mm 0 W/m2
06:56 14.4 °C 13.8 °C 1014.1 hPa NW 6.1 km/h 9.7 km/h 96% 0.0 mm 0 W/m2
07:01 14.4 °C 13.8 °C 1014.1 hPa Calm   9.7 km/h 96% 0.0 mm 0 W/m2
07:06 14.3 °C 13.5 °C 1014.4 hPa Calm   9.7 km/h 95% 0.0 mm 2 W/m2
07:11 14.3 °C 13.5 °C 1014.4 hPa Calm   5.0 km/h 95% 0.0 mm 4 W/m2
07:16 14.3 °C 13.5 °C 1014.4 hPa NNW 2.6 km/h 8.7 km/h 95% 0.0 mm 7 W/m2
07:21 14.2 °C 13.4 °C 1014.4 hPa Calm   8.7 km/h 95% 0.0 mm 10 W/m2
07:26 14.1 °C 13.3 °C 1014.4 hPa Calm   7.2 km/h 95% 0.0 mm 13 W/m2
07:31 14.1 °C 13.3 °C 1014.4 hPa North 1.1 km/h 5.0 km/h 95% 0.0 mm 15 W/m2
07:36 14.0 °C 13.2 °C 1014.4 hPa NNW 3.5 km/h 6.1 km/h 95% 0.0 mm 17 W/m2
07:41 14.0 °C 13.2 °C 1014.4 hPa Calm   6.1 km/h 95% 0.0 mm 20 W/m2
07:46 14.0 °C 13.2 °C 1014.4 hPa Calm   6.1 km/h 95% 0.0 mm 23 W/m2
07:51 14.0 °C 13.2 °C 1014.8 hPa Calm   6.1 km/h 95% 0.0 mm 35 W/m2
07:56 14.1 °C 13.3 °C 1014.8 hPa Calm     95% 0.0 mm 154 W/m2
08:01 14.9 °C 14.3 °C 1014.4 hPa Calm     96% 0.0 mm 169 W/m2
08:06 15.5 °C 14.7 °C 1014.8 hPa WNW 5.0 km/h 7.2 km/h 95% 0.0 mm 183 W/m2
08:11 15.8 °C 14.7 °C 1014.8 hPa NW 6.1 km/h 7.2 km/h 93% 0.0 mm 187 W/m2
08:16 16.0 °C 13.8 °C 1015.1 hPa NW 2.6 km/h 7.2 km/h 87% 0.3 mm 197 W/m2
08:21 16.3 °C 13.8 °C 1015.1 hPa NNW 5.0 km/h 9.7 km/h 85% 0.3 mm 205 W/m2
08:26 16.5 °C 13.6 °C 1014.8 hPa NNW 6.1 km/h 9.7 km/h 83% 0.3 mm 213 W/m2
08:31 16.6 °C 13.7 °C 1014.8 hPa NNW 6.1 km/h 9.7 km/h 83% 0.3 mm 180 W/m2
08:36 16.7 °C 13.6 °C 1015.1 hPa NNW 5.0 km/h 9.7 km/h 82% 0.3 mm 167 W/m2
08:41 16.7 °C 13.6 °C 1015.1 hPa NNW 7.2 km/h 9.7 km/h 82% 0.3 mm 237 W/m2
08:46 17.0 °C 13.7 °C 1015.1 hPa NNW 6.1 km/h 9.7 km/h 81% 0.3 mm 247 W/m2
08:51 17.2 °C 13.3 °C 1015.1 hPa NNW 7.2 km/h 11.1 km/h 78% 0.3 mm 254 W/m2
08:56 17.3 °C 13.2 °C 1015.5 hPa NNW 6.1 km/h 11.1 km/h 77% 0.3 mm 261 W/m2
09:01 17.6 °C 13.3 °C 1015.5 hPa NNW 3.5 km/h 11.1 km/h 76% 0.3 mm 269 W/m2
09:06 18.0 °C 13.5 °C 1015.5 hPa NNW 1.1 km/h 9.7 km/h 75% 0.3 mm 280 W/m2
09:11 18.4 °C 13.5 °C 1015.5 hPa Calm   7.2 km/h 73% 0.3 mm 309 W/m2
09:16 19.0 °C 13.6 °C 1015.5 hPa North 2.6 km/h 7.2 km/h 71% 0.0 mm 223 W/m2
09:21 18.7 °C 13.6 °C 1015.5 hPa North 2.6 km/h 7.2 km/h 72% 0.0 mm 281 W/m2
09:26 18.7 °C 14.0 °C 1015.8 hPa NNW 2.6 km/h 7.2 km/h 74% 0.0 mm 368 W/m2
09:31 19.2 °C 14.3 °C 1015.8 hPa NW 5.0 km/h 7.2 km/h 73% 0.0 mm 198 W/m2
09:36 19.0 °C 14.1 °C 1015.8 hPa NNW 5.0 km/h 8.7 km/h 73% 0.0 mm 386 W/m2
09:41 19.4 °C 14.7 °C 1015.8 hPa NW 6.1 km/h 11.1 km/h 74% 0.0 mm 401 W/m2
09:46 20.0 °C 15.0 °C 1015.8 hPa WNW 5.0 km/h 11.1 km/h 73% 0.0 mm 389 W/m2
09:51 20.1 °C 14.9 °C 1016.1 hPa SW 9.7 km/h 17.2 km/h 72% 0.0 mm 283 W/m2
09:56 19.2 °C 14.4 °C 1016.1 hPa SW 13.4 km/h 20.9 km/h 74% 0.0 mm 281 W/m2
10:01 18.9 °C 14.8 °C 1016.1 hPa West 8.7 km/h 20.9 km/h 77% 0.0 mm 295 W/m2
10:06 18.9 °C 14.2 °C 1016.1 hPa WSW 15.8 km/h 20.9 km/h 74% 0.0 mm 413 W/m2
10:11 19.1 °C 14.4 °C 1016.1 hPa SW 7.2 km/h 20.9 km/h 74% 0.0 mm 406 W/m2
10:16 19.2 °C 15.1 °C 1016.1 hPa SSW 13.4 km/h 21.9 km/h 77% 0.0 mm 109 W/m2
10:21 18.1 °C 15.4 °C 1016.1 hPa SSW 12.2 km/h 21.9 km/h 84% 0.3 mm 112 W/m2
10:26 17.1 °C 14.7 °C 1016.5 hPa SSW 11.1 km/h 21.9 km/h 86% 0.5 mm 145 W/m2
10:31 16.9 °C 14.9 °C 1016.5 hPa SSW 11.1 km/h 20.9 km/h 88% 0.5 mm 200 W/m2
10:36 17.0 °C 15.2 °C 1016.1 hPa SSW 20.9 km/h 28.0 km/h 89% 0.5 mm 371 W/m2
10:41 17.1 °C 15.4 °C 1016.5 hPa SSW 18.3 km/h 28.0 km/h 90% 0.5 mm 564 W/m2
10:42 17.2 °C 15.4 °C 1016.5 hPa SSW 12.2 km/h 28.0 km/h 89% 0.5 mm 417 W/m2
10:47 17.3 °C 15.3 °C 1016.5 hPa SSW 9.7 km/h 28.0 km/h 88% 0.5 mm 317 W/m2
10:52 17.3 °C 15.3 °C 1016.5 hPa SSW 20.9 km/h 29.4 km/h 88% 0.5 mm 326 W/m2
10:57 17.1 °C 15.3 °C 1016.5 hPa SSW 14.8 km/h 29.4 km/h 89% 0.5 mm 315 W/m2
11:02 16.9 °C 15.3 °C 1016.8 hPa SSW 13.4 km/h 29.4 km/h 90% 0.5 mm 171 W/m2
11:07 16.6 °C 15.1 °C 1016.8 hPa SSW 12.2 km/h 20.9 km/h 91% 0.5 mm 278 W/m2
11:12 16.6 °C 15.3 °C 1016.8 hPa SSW 15.8 km/h 21.9 km/h 92% 0.5 mm 339 W/m2
11:17 16.5 °C 15.2 °C 1016.5 hPa SSW 7.2 km/h 24.5 km/h 92% 0.5 mm 306 W/m2
11:22 16.5 °C 15.4 °C 1016.5 hPa SSW 23.3 km/h 29.4 km/h 93% 0.0 mm 162 W/m2
11:27 15.8 °C 14.7 °C 1016.8 hPa SW 14.8 km/h 31.7 km/h 93% 0.3 mm 151 W/m2
11:32 15.6 °C 14.7 °C 1016.5 hPa SSW 15.8 km/h 31.7 km/h 94% 0.5 mm 188 W/m2
11:37 15.5 °C 14.7 °C 1016.8 hPa SW 17.2 km/h 30.6 km/h 95% 0.5 mm 154 W/m2
11:42 15.4 °C 14.6 °C 1016.8 hPa SW 14.8 km/h 30.6 km/h 95% 0.5 mm 100 W/m2
11:47 15.4 °C 14.4 °C 1016.8 hPa SSW 9.7 km/h 30.6 km/h 94% 0.5 mm 193 W/m2
11:52 15.6 °C 14.7 °C 1016.8 hPa SW 14.8 km/h 28.0 km/h 94% 0.5 mm 276 W/m2
11:57 15.7 °C 14.7 °C 1016.8 hPa SSW 19.5 km/h 27.0 km/h 94% 0.5 mm 104 W/m2
12:02 15.1 °C 14.2 °C 1016.8 hPa SW 17.2 km/h 34.3 km/h 94% 1.3 mm 223 W/m2
12:07 15.0 °C 14.1 °C 1016.8 hPa SW 13.4 km/h 34.3 km/h 94% 1.3 mm 309 W/m2
12:12 15.3 °C 14.5 °C 1016.8 hPa SSW 11.1 km/h 24.5 km/h 95% 1.5 mm 380 W/m2
12:17 15.5 °C 14.7 °C 1016.8 hPa SSW 12.2 km/h 20.9 km/h 95% 1.5 mm 457 W/m2
12:22 16.1 °C 15.0 °C 1016.8 hPa SSW 15.8 km/h 19.5 km/h 93% 1.5 mm 417 W/m2
12:41 16.5 °C 14.2 °C 1016.8 hPa SSW 17.2 km/h 25.6 km/h 86% 1.0 mm 320 W/m2
12:46 16.6 °C 13.9 °C 1016.8 hPa SW 12.2 km/h 25.6 km/h 84% 1.0 mm 237 W/m2
12:51 16.6 °C 13.9 °C 1017.2 hPa SW 14.8 km/h 25.6 km/h 84% 1.0 mm 249 W/m2
12:56 16.6 °C 13.7 °C 1017.2 hPa SSW 13.4 km/h 24.5 km/h 83% 1.0 mm 256 W/m2
13:02 16.8 °C 13.9 °C 1016.8 hPa SW 13.4 km/h 24.5 km/h 83% 0.3 mm 235 W/m2
13:07 16.7 °C 13.6 °C 1016.8 hPa SW 13.4 km/h 29.4 km/h 82% 0.3 mm 238 W/m2
13:12 16.8 °C 13.9 °C 1017.2 hPa SSW 18.3 km/h 29.4 km/h 83% 0.0 mm 230 W/m2
13:17 16.8 °C 13.9 °C 1017.2 hPa SSW 17.2 km/h 24.5 km/h 83% 0.0 mm 191 W/m2
13:22 16.7 °C 13.6 °C 1017.2 hPa SSW 20.9 km/h 28.0 km/h 82% 0.0 mm 188 W/m2
13:27 16.6 °C 13.3 °C 1017.2 hPa SSW 12.2 km/h 28.0 km/h 81% 0.0 mm 130 W/m2
13:32 16.6 °C 13.5 °C 1017.2 hPa SSW 14.8 km/h 27.0 km/h 82% 0.0 mm 240 W/m2
13:37 16.7 °C 13.2 °C 1017.2 hPa SW 14.8 km/h 27.0 km/h 80% 0.0 mm 276 W/m2
13:42 16.8 °C 12.8 °C 1017.2 hPa SSW 15.8 km/h 29.4 km/h 77% 0.0 mm 281 W/m2
13:47 17.0 °C 12.3 °C 1017.2 hPa SSW 14.8 km/h 34.3 km/h 74% 0.0 mm 334 W/m2
13:52 17.3 °C 12.4 °C 1017.2 hPa SSW 12.2 km/h 34.3 km/h 73% 0.0 mm 281 W/m2
13:57 17.4 °C 12.5 °C 1017.2 hPa SSW 11.1 km/h 28.0 km/h 73% 0.0 mm 299 W/m2
14:02 17.4 °C 12.3 °C 1017.2 hPa SSW 12.2 km/h 29.4 km/h 72% 0.0 mm 240 W/m2
14:07 17.3 °C 12.0 °C 1017.2 hPa SSW 15.8 km/h 29.4 km/h 71% 0.0 mm 252 W/m2
14:12 17.2 °C 11.9 °C 1017.5 hPa SSW 15.8 km/h 27.0 km/h 71% 0.0 mm 293 W/m2
14:17 17.2 °C 11.9 °C 1017.2 hPa South 17.2 km/h 30.6 km/h 71% 0.0 mm 182 W/m2
14:22 17.1 °C 12.0 °C 1017.2 hPa South 19.5 km/h 30.6 km/h 72% 0.0 mm 133 W/m2
14:27 17.0 °C 11.9 °C 1017.2 hPa SSW 17.2 km/h 25.6 km/h 72% 0.0 mm 163 W/m2
14:32 17.1 °C 11.8 °C 1017.2 hPa SSW 17.2 km/h 29.4 km/h 71% 0.0 mm 179 W/m2
14:37 17.1 °C 12.0 °C 1017.2 hPa SSW 12.2 km/h 29.4 km/h 72% 0.0 mm 213 W/m2
14:42 17.2 °C 11.9 °C 1017.2 hPa South 14.8 km/h 24.5 km/h 71% 0.0 mm 198 W/m2
14:47 17.2 °C 11.7 °C 1017.2 hPa South 19.5 km/h 24.5 km/h 70% 0.0 mm 266 W/m2
14:52 17.4 °C 12.1 °C 1017.2 hPa SSW 13.4 km/h 24.5 km/h 71% 0.0 mm 295 W/m2
14:57 17.5 °C 11.8 °C 1017.2 hPa SSW 17.2 km/h 28.0 km/h 69% 0.0 mm 301 W/m2
15:17 17.5 °C 12.0 °C 1016.8 hPa South 12.2 km/h 25.6 km/h 70% 0.0 mm 201 W/m2
15:22 17.5 °C 12.2 °C 1016.8 hPa SSW 14.8 km/h 25.6 km/h 71% 0.0 mm 166 W/m2
15:27 17.4 °C 12.3 °C 1016.8 hPa SSW 14.8 km/h 23.3 km/h 72% 0.0 mm 161 W/m2
15:32 17.4 °C 12.1 °C 1016.8 hPa SSW 14.8 km/h 27.0 km/h 71% 0.0 mm 161 W/m2
15:37 17.4 °C 12.3 °C 1016.8 hPa SW 14.8 km/h 27.0 km/h 72% 0.0 mm 218 W/m2
15:42 17.4 °C 12.3 °C 1016.8 hPa SSW 15.8 km/h 23.3 km/h 72% 0.0 mm 195 W/m2
15:47 17.4 °C 12.1 °C 1016.8 hPa South 15.8 km/h 27.0 km/h 71% 0.0 mm 123 W/m2
15:52 17.2 °C 12.1 °C 1017.2 hPa South 17.2 km/h 27.0 km/h 72% 0.0 mm 114 W/m2
15:57 17.1 °C 11.8 °C 1016.8 hPa South 17.2 km/h 28.0 km/h 71% 0.0 mm 182 W/m2
16:02 17.2 °C 11.9 °C 1016.8 hPa South 14.8 km/h 28.0 km/h 71% 0.0 mm 180 W/m2
16:07 17.3 °C 12.0 °C 1016.8 hPa South 9.7 km/h 25.6 km/h 71% 0.0 mm 159 W/m2
16:12 17.3 °C 12.0 °C 1016.8 hPa SSW 15.8 km/h 25.6 km/h 71% 0.0 mm 197 W/m2
16:17 17.3 °C 12.2 °C 1016.8 hPa South 12.2 km/h 25.6 km/h 72% 0.0 mm 177 W/m2
16:22 17.4 °C 12.1 °C 1016.8 hPa South 13.4 km/h 25.6 km/h 71% 0.0 mm 163 W/m2
16:27 17.3 °C 12.2 °C 1016.8 hPa SSW 13.4 km/h 24.5 km/h 72% 0.0 mm 169 W/m2
16:32 17.3 °C 12.4 °C 1016.8 hPa SSW 15.8 km/h 24.5 km/h 73% 0.0 mm 182 W/m2
16:37 17.4 °C 12.3 °C 1016.8 hPa SSW 14.8 km/h 21.9 km/h 72% 0.0 mm 188 W/m2
16:42 17.4 °C 12.3 °C 1016.8 hPa SSW 13.4 km/h 21.9 km/h 72% 0.0 mm 155 W/m2
16:47 17.3 °C 12.2 °C 1016.8 hPa SSW 11.1 km/h 27.0 km/h 72% 0.0 mm 93 W/m2
16:52 17.1 °C 12.2 °C 1016.8 hPa SSW 13.4 km/h 27.0 km/h 73% 0.0 mm 80 W/m2
16:57 16.9 °C 12.1 °C 1016.8 hPa SW 12.2 km/h 23.3 km/h 73% 0.0 mm 121 W/m2
17:02 16.9 °C 12.2 °C 1016.8 hPa SW 9.7 km/h 20.9 km/h 74% 0.0 mm 118 W/m2
17:07 16.9 °C 12.7 °C 1016.8 hPa SW 15.8 km/h 23.3 km/h 76% 0.0 mm 110 W/m2
17:12 16.8 °C 12.8 °C 1016.8 hPa SW 11.1 km/h 23.3 km/h 77% 0.0 mm 113 W/m2
17:17 17.1 °C 12.4 °C 1016.8 hPa SW 12.2 km/h 23.3 km/h 74% 0.0 mm 116 W/m2
17:22 16.7 °C 11.8 °C 1017.2 hPa SW 12.2 km/h 20.9 km/h 73% 0.0 mm 119 W/m2
17:27 16.7 °C 11.6 °C 1016.8 hPa SW 11.1 km/h 21.9 km/h 72% 0.0 mm 121 W/m2
17:32 16.7 °C 11.8 °C 1016.8 hPa SW 8.7 km/h 23.3 km/h 73% 0.0 mm 99 W/m2
17:37 16.7 °C 11.8 °C 1016.8 hPa SW 8.7 km/h 23.3 km/h 73% 0.0 mm 80 W/m2
17:42 16.7 °C 11.8 °C 1017.2 hPa SW 12.2 km/h 20.9 km/h 73% 0.0 mm 75 W/m2
17:47 16.7 °C 12.1 °C 1016.8 hPa WSW 7.2 km/h 20.9 km/h 74% 0.0 mm 95 W/m2
17:52 17.3 °C 12.6 °C 1016.8 hPa WSW 9.7 km/h 17.2 km/h 74% 0.0 mm 72 W/m2
17:57 17.0 °C 12.1 °C 1016.8 hPa SW 8.7 km/h 19.5 km/h 73% 0.0 mm 76 W/m2
18:02 17.0 °C 11.9 °C 1016.8 hPa SSW 11.1 km/h 19.5 km/h 72% 0.0 mm 97 W/m2
18:07 17.1 °C 12.0 °C 1016.8 hPa SW 9.7 km/h 18.3 km/h 72% 0.0 mm 129 W/m2
18:12 17.5 °C 12.6 °C 1016.8 hPa SW 5.0 km/h 19.5 km/h 73% 0.0 mm 113 W/m2
18:17 17.3 °C 12.2 °C 1017.2 hPa SW 13.4 km/h 21.9 km/h 72% 0.0 mm 36 W/m2
18:22 16.8 °C 12.9 °C 1017.2 hPa SSW 25.6 km/h 37.8 km/h 78% 0.0 mm 15 W/m2
18:27 15.5 °C 13.2 °C 1017.5 hPa SSW 18.3 km/h 43.9 km/h 86% 0.0 mm 22 W/m2
18:32 15.4 °C 13.4 °C 1017.2 hPa SSW 27.0 km/h 43.9 km/h 88% 0.0 mm 34 W/m2
18:37 15.0 °C 13.2 °C 1017.5 hPa South 20.9 km/h 36.7 km/h 89% 0.0 mm 20 W/m2
18:42 14.9 °C 13.3 °C 1017.5 hPa SSW 14.8 km/h 36.7 km/h 90% 0.0 mm 19 W/m2
18:47 14.7 °C 13.3 °C 1017.5 hPa SSW 8.7 km/h 36.7 km/h 91% 0.5 mm 11 W/m2
18:52 15.1 °C 13.5 °C 1017.5 hPa SSW 21.9 km/h 31.7 km/h 90% 0.5 mm 13 W/m2
18:57 15.1 °C 12.9 °C 1017.2 hPa SSW 20.9 km/h 31.7 km/h 87% 0.5 mm 8 W/m2
19:02 15.3 °C 12.8 °C 1017.2 hPa SSW 21.9 km/h 31.7 km/h 85% 0.5 mm 8 W/m2
19:07 15.5 °C 12.6 °C 1017.2 hPa SSW 19.5 km/h 34.3 km/h 83% 0.5 mm 3 W/m2
19:23 15.9 °C 12.8 °C 1017.5 hPa South 13.4 km/h 37.8 km/h 82% 0.5 mm 1 W/m2
19:28 16.4 °C 12.9 °C 1017.5 hPa SSW 17.2 km/h 36.7 km/h 80% 0.5 mm 0 W/m2
19:33 15.9 °C 12.8 °C 1017.5 hPa SW 21.9 km/h 35.6 km/h 82% 0.5 mm 0 W/m2
19:38 15.9 °C 12.4 °C 1017.5 hPa SSW 24.5 km/h 34.3 km/h 80% 0.5 mm 0 W/m2
19:43 15.9 °C 12.4 °C 1017.5 hPa SSW 13.4 km/h 34.3 km/h 80% 0.3 mm 0 W/m2
19:48 15.7 °C 12.1 °C 1017.8 hPa SW 23.3 km/h 31.7 km/h 79% 0.0 mm 0 W/m2
19:53 15.9 °C 12.3 °C 1017.8 hPa SSW 15.8 km/h 31.7 km/h 79% 0.0 mm 0 W/m2
19:58 15.9 °C 12.4 °C 1018.2 hPa SSW 18.3 km/h 31.7 km/h 80% 0.0 mm 0 W/m2
20:03 15.9 °C 12.1 °C 1018.2 hPa SSW 20.9 km/h 34.3 km/h 78% 0.0 mm 0 W/m2
20:23 15.8 °C 12.0 °C 1018.5 hPa SSW 21.9 km/h 30.6 km/h 78% 0.0 mm 0 W/m2
20:28 15.6 °C 12.0 °C 1018.5 hPa SSW 14.8 km/h 30.6 km/h 79% 0.0 mm 0 W/m2
20:33 15.9 °C 11.9 °C 1018.5 hPa SSW 17.2 km/h 36.7 km/h 77% 0.0 mm 0 W/m2
20:38 16.0 °C 11.8 °C 1018.8 hPa SW 23.3 km/h 36.7 km/h 76% 0.0 mm 0 W/m2
20:43 15.9 °C 11.3 °C 1018.8 hPa SW 15.8 km/h 31.7 km/h 74% 0.0 mm 0 W/m2
20:48 15.5 °C 10.9 °C 1018.8 hPa SW 19.5 km/h 33.1 km/h 74% 0.0 mm 0 W/m2
20:53 15.8 °C 11.0 °C 1018.8 hPa SW 25.6 km/h 33.1 km/h 73% 0.0 mm 0 W/m2
20:58 15.8 °C 11.0 °C 1019.2 hPa SW 27.0 km/h 40.4 km/h 73% 0.0 mm 0 W/m2
21:03 15.8 °C 11.0 °C 1019.2 hPa SW 23.3 km/h 40.4 km/h 73% 0.0 mm 0 W/m2
21:08 16.2 °C 11.2 °C 1019.5 hPa SW 11.1 km/h 36.7 km/h 72% 0.0 mm 0 W/m2
21:13 15.8 °C 11.0 °C 1019.5 hPa SW 15.8 km/h 35.6 km/h 73% 0.0 mm 0 W/m2
21:18 15.7 °C 10.9 °C 1019.5 hPa SSW 23.3 km/h 39.3 km/h 73% 0.0 mm 0 W/m2
21:23 15.7 °C 10.9 °C 1019.5 hPa SW 20.9 km/h 39.3 km/h 73% 0.0 mm 0 W/m2
21:28 15.6 °C 10.8 °C 1019.5 hPa SW 23.3 km/h 39.3 km/h 73% 0.0 mm 0 W/m2
21:33 15.6 °C 10.8 °C 1019.5 hPa SW 21.9 km/h 36.7 km/h 73% 0.0 mm 0 W/m2
21:38 15.6 °C 11.0 °C 1019.9 hPa SW 15.8 km/h 33.1 km/h 74% 0.0 mm 0 W/m2
21:43 15.6 °C 11.0 °C 1019.9 hPa SW 19.5 km/h 30.6 km/h 74% 0.0 mm 0 W/m2
21:48 15.1 °C 10.3 °C 1020.2 hPa SW 28.0 km/h 36.7 km/h 73% 0.0 mm 0 W/m2
21:53 15.4 °C 10.8 °C 1020.2 hPa SW 12.2 km/h 36.7 km/h 74% 0.0 mm 0 W/m2
21:58 15.4 °C 10.8 °C 1020.2 hPa SW 21.9 km/h 36.7 km/h 74% 0.0 mm 0 W/m2
22:03 15.3 °C 10.7 °C 1020.2 hPa SW 18.3 km/h 35.6 km/h 74% 0.0 mm 0 W/m2
22:08 15.3 °C 10.7 °C 1020.5 hPa WSW 18.3 km/h 39.3 km/h 74% 0.0 mm 0 W/m2
22:13 15.3 °C 10.7 °C 1020.5 hPa WSW 17.2 km/h 39.3 km/h 74% 0.0 mm 0 W/m2
22:18 15.2 °C 10.4 °C 1020.5 hPa WSW 15.8 km/h 34.3 km/h 73% 0.0 mm 0 W/m2
22:23 15.2 °C 10.4 °C 1020.5 hPa SW 24.5 km/h 34.3 km/h 73% 0.0 mm 0 W/m2
22:28 15.3 °C 10.5 °C 1020.5 hPa WSW 23.3 km/h 36.7 km/h 73% 0.0 mm 0 W/m2
22:47 14.5 °C 10.3 °C 1020.5 hPa WSW 12.2 km/h 31.7 km/h 76% 0.0 mm 0 W/m2
22:53 14.5 °C 10.5 °C 1020.9 hPa SW 21.9 km/h 34.3 km/h 77% 0.0 mm 0 W/m2
22:58 14.8 °C 10.6 °C 1020.5 hPa SW 28.0 km/h 39.3 km/h 76% 0.0 mm 0 W/m2
23:03 14.7 °C 10.3 °C 1020.9 hPa SW 23.3 km/h 39.3 km/h 75% 0.0 mm 0 W/m2
23:08 14.6 °C 10.4 °C 1020.9 hPa SW 12.2 km/h 34.3 km/h 76% 0.0 mm 0 W/m2
23:13 14.5 °C 10.5 °C 1020.5 hPa SW 20.9 km/h 33.1 km/h 77% 0.0 mm 0 W/m2
23:18 14.3 °C 10.7 °C 1020.5 hPa SW 25.6 km/h 34.3 km/h 79% 0.0 mm 0 W/m2
23:23 14.4 °C 10.8 °C 1020.9 hPa SW 20.9 km/h 34.3 km/h 79% 0.0 mm 0 W/m2
23:28 14.3 °C 11.1 °C 1020.9 hPa SW 19.5 km/h 31.7 km/h 81% 0.0 mm 0 W/m2
23:33 14.1 °C 10.9 °C 1020.5 hPa WSW 14.8 km/h 31.7 km/h 81% 0.0 mm 0 W/m2
23:38 14.2 °C 10.6 °C 1020.9 hPa WSW 23.3 km/h 35.6 km/h 79% 0.3 mm 0 W/m2
23:43 14.4 °C 10.6 °C 1020.9 hPa WSW 19.5 km/h 41.7 km/h 78% 0.3 mm 0 W/m2
23:48 14.3 °C 10.7 °C 1020.9 hPa SW 19.5 km/h 41.7 km/h 79% 0.3 mm 0 W/m2
23:53 14.0 °C 11.0 °C 1020.9 hPa SW 27.0 km/h 39.3 km/h 82% 0.3 mm 0 W/m2
23:58 13.7 °C 11.1 °C 1020.9 hPa WSW 17.2 km/h 39.3 km/h 84% 0.3 mm 0 W/m2
Northern Hawkes Bay. New Zealand Historic Data
Compliments of Weather Underground - 2.25 mb